createdAt,value
2022-09-04T00:01:57.350Z,1.40
2022-09-04T00:04:53.187Z,1.40
2022-09-04T00:08:05.464Z,1.45
2022-09-04T00:11:01.202Z,1.33
2022-09-04T00:13:57.475Z,1.50
2022-09-04T00:16:51.168Z,1.65
2022-09-04T00:19:43.349Z,1.50
2022-09-04T00:22:34.999Z,1.25
2022-09-04T00:25:27.091Z,1.40
2022-09-04T00:28:20.968Z,1.30
2022-09-04T00:31:19.234Z,1.20
2022-09-04T00:34:18.792Z,1.40
2022-09-04T00:37:08.001Z,1.70
2022-09-04T00:39:59.642Z,1.40
2022-09-04T00:43:22.082Z,1.75
2022-09-04T00:46:37.421Z,1.52
2022-09-04T00:49:38.361Z,1.42
2022-09-04T00:52:44.583Z,1.20
2022-09-04T00:55:52.561Z,1.50
2022-09-04T00:58:54.156Z,1.40
2022-09-04T01:01:41.966Z,1.30
2022-09-04T01:04:37.383Z,1.58
2022-09-04T01:07:37.216Z,1.20
2022-09-04T01:10:41.747Z,1.35
2022-09-04T01:13:37.446Z,1.48
2022-09-04T01:16:32.235Z,1.40
2022-09-04T01:19:38.689Z,1.48
2022-09-04T01:22:41.338Z,1.40
2022-09-04T01:25:47.822Z,1.08
2022-09-04T01:28:43.710Z,1.20
2022-09-04T01:31:38.644Z,1.33
2022-09-04T01:34:39.560Z,1.42
2022-09-04T01:37:42.325Z,1.45
2022-09-04T01:40:37.736Z,1.35
2022-09-04T01:43:26.381Z,1.20
2022-09-04T01:46:28.782Z,1.33
2022-09-04T01:49:25.882Z,1.35
2022-09-04T01:52:36.431Z,1.30
2022-09-04T01:55:31.413Z,1.20
2022-09-04T01:58:25.562Z,1.20
2022-09-04T02:01:23.379Z,1.30
2022-09-04T02:04:18.630Z,1.40
2022-09-04T02:07:16.090Z,1.10
2022-09-04T02:10:13.361Z,1.20
2022-09-04T02:13:14.970Z,1.15
2022-09-04T02:16:14.474Z,1.30
2022-09-04T02:19:12.001Z,1.10
2022-09-04T02:22:07.775Z,1.00
2022-09-04T02:25:01.895Z,1.17
2022-09-04T02:27:55.347Z,1.15
2022-09-04T02:30:51.057Z,1.23
2022-09-04T02:33:47.414Z,1.17
2022-09-04T02:36:43.963Z,1.10
2022-09-04T02:39:41.818Z,1.30
2022-09-04T02:42:39.833Z,1.23
2022-09-04T02:45:35.462Z,1.20
2022-09-04T02:48:35.173Z,1.00
2022-09-04T02:51:38.640Z,0.90
2022-09-04T02:54:44.888Z,1.00
2022-09-04T02:57:47.752Z,1.00
2022-09-04T03:00:45.199Z,1.08
2022-09-04T03:03:38.523Z,1.10
2022-09-04T03:06:41.650Z,1.25
2022-09-04T03:09:37.443Z,1.40
2022-09-04T03:12:38.215Z,1.10
2022-09-04T03:15:30.309Z,1.30
2022-09-04T03:18:24.163Z,1.33
2022-09-04T03:21:16.508Z,1.10
2022-09-04T03:24:09.113Z,1.20
2022-09-04T03:27:02.575Z,1.02
2022-09-04T03:29:56.521Z,1.10
2022-09-04T03:32:49.534Z,0.95
2022-09-04T03:35:41.939Z,0.80
2022-09-04T03:38:35.542Z,1.20
2022-09-04T03:41:32.914Z,1.10
2022-09-04T03:44:32.740Z,0.90
2022-09-04T03:47:27.973Z,1.10
2022-09-04T03:50:25.180Z,1.00
2022-09-04T03:53:23.067Z,1.45
2022-09-04T03:56:31.541Z,0.88
2022-09-04T03:59:38.071Z,1.33
2022-09-04T04:02:37.939Z,1.48
2022-09-04T04:05:38.728Z,1.27
2022-09-04T04:09:05.139Z,1.00
2022-09-04T04:12:15.951Z,1.05
2022-09-04T04:15:14.669Z,1.10
2022-09-04T04:18:37.805Z,1.35
2022-09-04T04:21:36.416Z,1.40
2022-09-04T04:24:39.236Z,1.10
2022-09-04T04:27:47.485Z,1.23
2022-09-04T04:30:48.058Z,1.10
2022-09-04T04:33:45.136Z,1.20
2022-09-04T04:36:40.101Z,1.40
2022-09-04T04:39:35.852Z,1.33
2022-09-04T04:42:29.966Z,1.20
2022-09-04T04:45:42.419Z,1.10
2022-09-04T04:49:05.291Z,1.20
2022-09-04T04:52:18.393Z,0.90
2022-09-04T04:55:14.949Z,1.35
2022-09-04T04:58:42.076Z,1.00
2022-09-04T05:01:42.362Z,1.02
2022-09-04T05:04:40.935Z,1.10
2022-09-04T05:07:36.104Z,1.02
2022-09-04T05:10:30.224Z,1.00
2022-09-04T05:13:24.173Z,1.20
2022-09-04T05:16:26.528Z,1.02
2022-09-04T05:19:23.826Z,1.00
2022-09-04T05:22:19.815Z,1.15
2022-09-04T05:25:11.522Z,1.00
2022-09-04T05:28:06.184Z,0.95
2022-09-04T05:31:03.458Z,1.10
2022-09-04T05:34:00.225Z,1.10
2022-09-04T05:36:59.541Z,1.05
2022-09-04T05:40:01.563Z,0.90
2022-09-04T05:43:03.470Z,1.10
2022-09-04T05:46:01.670Z,1.23
2022-09-04T05:49:00.148Z,0.90
2022-09-04T05:52:07.073Z,1.20
2022-09-04T05:55:32.796Z,1.10
2022-09-04T05:58:34.779Z,1.20
2022-09-04T06:01:39.210Z,1.05
2022-09-04T06:04:56.499Z,1.20
2022-09-04T06:07:52.962Z,1.30
2022-09-04T06:10:53.798Z,1.35
2022-09-04T06:13:56.159Z,1.20
2022-09-04T06:16:59.190Z,1.27
2022-09-04T06:20:08.410Z,1.23
2022-09-04T06:23:10.275Z,1.35
2022-09-04T06:26:28.599Z,1.30
2022-09-04T06:29:45.420Z,1.20
2022-09-04T06:32:50.643Z,1.30
2022-09-04T06:36:00.274Z,1.27
2022-09-04T06:39:05.123Z,1.75
2022-09-04T06:42:14.448Z,1.42
2022-09-04T06:45:20.537Z,1.25
2022-09-04T06:48:19.468Z,1.88
2022-09-04T06:51:23.932Z,1.02
2022-09-04T06:54:20.739Z,1.80
2022-09-04T06:57:42.963Z,1.50
2022-09-04T07:00:34.856Z,1.27
2022-09-04T07:03:35.435Z,1.38
2022-09-04T07:06:29.866Z,1.45
2022-09-04T07:09:20.519Z,1.33
2022-09-04T07:12:36.286Z,1.60
2022-09-04T07:15:47.960Z,1.30
2022-09-04T07:19:07.896Z,1.30
2022-09-04T07:22:17.894Z,1.50
2022-09-04T07:25:18.910Z,1.58
2022-09-04T07:28:24.003Z,1.40
2022-09-04T07:31:17.180Z,1.60
2022-09-04T07:34:15.363Z,1.73
2022-09-04T07:37:10.008Z,1.70
2022-09-04T07:40:08.170Z,1.77
2022-09-04T07:43:05.888Z,1.40
2022-09-04T07:46:04.179Z,1.60
2022-09-04T07:48:57.590Z,1.95
2022-09-04T07:51:52.932Z,1.70
2022-09-04T07:55:18.008Z,1.85
2022-09-04T07:58:38.745Z,1.95
2022-09-04T08:01:52.077Z,2.03
2022-09-04T08:05:03.091Z,1.60
2022-09-04T08:08:28.279Z,2.35
2022-09-04T08:12:15.010Z,1.90
2022-09-04T08:15:15.760Z,1.80
2022-09-04T08:18:21.296Z,1.88
2022-09-04T08:21:18.739Z,1.65
2022-09-04T08:24:37.122Z,1.80
2022-09-04T08:27:42.939Z,2.30
2022-09-04T08:30:40.847Z,2.25
2022-09-04T08:33:52.047Z,1.90
2022-09-04T08:36:52.489Z,1.80
2022-09-04T08:39:48.544Z,1.90
2022-09-04T08:43:14.240Z,2.10
2022-09-04T08:46:27.032Z,2.10
2022-09-04T08:49:49.709Z,2.10
2022-09-04T08:53:12.206Z,1.80
2022-09-04T08:56:18.475Z,1.63
2022-09-04T08:59:40.359Z,2.03
2022-09-04T09:03:03.130Z,1.98
2022-09-04T09:06:33.053Z,1.63
2022-09-04T09:10:05.477Z,2.00
2022-09-04T09:13:23.277Z,1.95
2022-09-04T09:16:21.657Z,1.60
2022-09-04T09:19:39.640Z,1.70
2022-09-04T09:23:26.023Z,1.58
2022-09-04T09:26:27.708Z,1.70
2022-09-04T09:29:49.761Z,1.60
2022-09-04T09:33:24.903Z,1.98
2022-09-04T09:37:02.767Z,1.45
2022-09-04T09:40:16.477Z,1.80
2022-09-04T09:43:30.775Z,1.50
2022-09-04T09:46:53.239Z,1.83
2022-09-04T09:50:04.297Z,1.35
2022-09-04T09:53:20.011Z,1.42
2022-09-04T09:56:46.695Z,1.55
2022-09-04T10:00:08.354Z,1.33
2022-09-04T10:03:33.409Z,1.67
2022-09-04T10:07:00.281Z,1.60
2022-09-04T10:10:10.533Z,1.80
2022-09-04T10:13:28.944Z,1.67
2022-09-04T10:16:52.973Z,1.45
2022-09-04T10:20:05.973Z,1.92
2022-09-04T10:23:22.880Z,1.77
2022-09-04T10:26:41.185Z,1.40
2022-09-04T10:29:49.514Z,1.90
2022-09-04T10:33:21.177Z,1.50
2022-09-04T10:36:25.676Z,1.70
2022-09-04T10:39:41.449Z,1.95
2022-09-04T10:42:41.041Z,1.70
2022-09-04T10:45:34.879Z,1.58
2022-09-04T10:48:37.154Z,1.63
2022-09-04T10:52:21.783Z,1.70
2022-09-04T10:55:27.237Z,1.73
2022-09-04T10:58:29.885Z,1.70
2022-09-04T11:01:43.911Z,2.00
2022-09-04T11:05:00.966Z,1.70
2022-09-04T11:08:18.992Z,1.77
2022-09-04T11:11:22.196Z,1.73
2022-09-04T11:14:29.294Z,1.70
2022-09-04T11:17:41.734Z,2.03
2022-09-04T11:21:05.808Z,1.75
2022-09-04T11:24:44.534Z,1.60
2022-09-04T11:28:02.670Z,1.75
2022-09-04T11:31:03.854Z,1.70
2022-09-04T11:34:42.285Z,1.70
2022-09-04T11:38:04.954Z,1.67
2022-09-04T11:41:28.954Z,1.90
2022-09-04T11:44:36.181Z,1.60
2022-09-04T11:47:53.963Z,1.60
2022-09-04T11:50:57.252Z,1.73
2022-09-04T11:54:05.819Z,1.80
2022-09-04T11:57:10.378Z,1.77
2022-09-04T12:00:11.678Z,2.03
2022-09-04T12:03:32.416Z,1.77
2022-09-04T12:06:37.345Z,1.67
2022-09-04T12:09:51.305Z,1.60
2022-09-04T12:13:25.515Z,1.50
2022-09-04T12:16:42.773Z,1.70
2022-09-04T12:20:05.076Z,1.42
2022-09-04T12:23:25.560Z,1.40
2022-09-04T12:26:51.917Z,1.40
2022-09-04T12:30:05.152Z,1.50
2022-09-04T12:33:11.957Z,1.63
2022-09-04T12:36:34.497Z,1.48
2022-09-04T12:40:12.457Z,1.42
2022-09-04T12:43:16.289Z,1.50
2022-09-04T12:46:16.708Z,1.60
2022-09-04T12:49:19.346Z,1.55
2022-09-04T12:52:19.144Z,1.80
2022-09-04T12:55:14.606Z,1.40
2022-09-04T12:58:13.454Z,1.60
2022-09-04T13:01:10.875Z,1.70
2022-09-04T13:04:06.931Z,1.67
2022-09-04T13:07:15.930Z,1.60
2022-09-04T13:10:17.000Z,1.80
2022-09-04T13:13:16.590Z,1.70
2022-09-04T13:16:12.958Z,1.50
2022-09-04T13:19:11.738Z,1.30
2022-09-04T13:22:14.797Z,1.45
2022-09-04T13:25:12.718Z,1.70
2022-09-04T13:28:18.937Z,1.67
2022-09-04T13:31:28.757Z,1.35
2022-09-04T13:34:24.725Z,2.00
2022-09-04T13:37:23.797Z,1.42
2022-09-04T13:40:24.927Z,1.55
2022-09-04T13:43:41.464Z,1.83
2022-09-04T13:46:33.663Z,1.60
2022-09-04T13:49:27.266Z,1.90
2022-09-04T13:52:19.378Z,1.70
2022-09-04T13:55:10.826Z,1.77
2022-09-04T13:58:10.425Z,1.88
2022-09-04T14:01:01.237Z,1.52
2022-09-04T14:03:51.313Z,1.75
2022-09-04T14:06:38.927Z,1.60
2022-09-04T14:09:25.937Z,2.00
2022-09-04T14:12:37.171Z,1.85
2022-09-04T14:15:38.291Z,1.80
2022-09-04T14:18:45.643Z,1.60
2022-09-04T14:21:44.034Z,1.77
2022-09-04T14:24:42.054Z,2.53
2022-09-04T14:27:39.942Z,1.73
2022-09-04T14:30:27.423Z,1.73
2022-09-04T14:33:25.111Z,2.40
2022-09-04T14:36:35.469Z,1.70
2022-09-04T14:39:29.018Z,1.73
2022-09-04T14:42:28.473Z,1.70
2022-09-04T14:45:32.586Z,1.67
2022-09-04T14:48:24.243Z,1.80
2022-09-04T14:51:16.910Z,1.60
2022-09-04T14:54:06.465Z,1.90
2022-09-04T14:56:57.943Z,2.00
2022-09-04T14:59:52.354Z,1.80
2022-09-04T15:02:44.519Z,1.70
2022-09-04T15:05:35.492Z,1.98
2022-09-04T15:08:29.348Z,1.85
2022-09-04T15:11:31.920Z,1.83
2022-09-04T15:14:28.374Z,1.80
2022-09-04T15:17:26.314Z,1.60
2022-09-04T15:20:22.008Z,1.70
2022-09-04T15:23:19.880Z,1.90
2022-09-04T15:26:12.425Z,2.30
2022-09-04T15:29:09.421Z,1.90
2022-09-04T15:32:01.821Z,1.80
2022-09-04T15:34:50.137Z,1.63
2022-09-04T15:37:37.783Z,1.63
2022-09-04T15:40:31.079Z,1.60
2022-09-04T15:43:24.737Z,1.50
2022-09-04T15:46:23.926Z,1.50
2022-09-04T15:49:27.844Z,1.73
2022-09-04T15:52:31.683Z,1.75
2022-09-04T15:55:25.510Z,1.80
2022-09-04T15:58:16.970Z,1.50
2022-09-04T16:01:25.974Z,1.70
2022-09-04T16:04:23.245Z,1.60
2022-09-04T16:07:34.143Z,1.80
2022-09-04T16:10:25.873Z,1.65
2022-09-04T16:13:34.730Z,1.50
2022-09-04T16:16:27.807Z,1.73
2022-09-04T16:19:25.734Z,1.48
2022-09-04T16:22:24.355Z,1.60
2022-09-04T16:25:23.817Z,1.70
2022-09-04T16:28:25.331Z,1.65
2022-09-04T16:31:14.346Z,1.60
2022-09-04T16:34:08.781Z,1.50
2022-09-04T16:37:01.947Z,1.55
2022-09-04T16:40:00.087Z,1.50
2022-09-04T16:42:51.959Z,1.70
2022-09-04T16:45:44.488Z,1.52
2022-09-04T16:48:36.722Z,1.63
2022-09-04T16:51:41.234Z,1.75
2022-09-04T16:54:35.391Z,1.80
2022-09-04T16:57:29.457Z,1.70
2022-09-04T17:00:17.643Z,1.85
2022-09-04T17:03:19.023Z,1.60
2022-09-04T17:06:18.726Z,1.60
2022-09-04T17:09:21.363Z,1.67
2022-09-04T17:12:22.433Z,1.67
2022-09-04T17:15:18.330Z,1.80
2022-09-04T17:18:08.229Z,1.77
2022-09-04T17:25:24.390Z,1.65
2022-09-04T17:29:12.479Z,2.00
2022-09-04T17:29:22.449Z,2.03
2022-09-04T17:30:42.841Z,1.83
2022-09-04T17:39:15.547Z,2.10
2022-09-04T17:40:51.159Z,2.05
2022-09-04T17:40:54.445Z,2.20
2022-09-04T17:43:27.583Z,2.15
2022-09-04T17:46:26.531Z,2.00
2022-09-04T17:49:20.422Z,2.40
2022-09-04T17:52:09.014Z,2.05
2022-09-04T17:55:02.753Z,1.70
2022-09-04T17:57:59.440Z,2.22
2022-09-04T18:01:14.241Z,1.90
2022-09-04T18:04:23.691Z,2.33
2022-09-04T18:07:29.930Z,2.22
2022-09-04T18:10:32.453Z,2.45
2022-09-04T18:13:38.126Z,2.60
2022-09-04T18:17:12.681Z,2.80
2022-09-04T18:20:11.133Z,2.42
2022-09-04T18:23:17.756Z,2.50
2022-09-04T18:26:15.387Z,2.45
2022-09-04T18:30:18.750Z,2.25
2022-09-04T18:37:09.420Z,2.55
2022-09-04T18:37:19.634Z,2.90
2022-09-04T18:39:14.207Z,2.60
2022-09-04T18:50:20.882Z,2.08
2022-09-04T18:50:21.514Z,2.25
2022-09-04T18:50:34.462Z,2.60
2022-09-04T18:51:52.041Z,2.50
2022-09-04T18:54:42.276Z,2.13
2022-09-04T18:57:33.861Z,2.20
2022-09-04T19:00:30.635Z,2.80
2022-09-04T19:03:23.145Z,2.42
2022-09-04T19:06:14.007Z,2.33
2022-09-04T19:09:09.997Z,2.40
2022-09-04T19:12:02.587Z,2.20
2022-09-04T19:14:54.136Z,2.55
2022-09-04T19:17:46.918Z,2.20
2022-09-04T19:20:46.484Z,2.70
2022-09-04T19:23:38.232Z,2.78
2022-09-04T19:26:32.342Z,2.33
2022-09-04T19:29:24.116Z,3.80
2022-09-04T19:32:15.819Z,2.58
2022-09-04T19:35:15.404Z,2.53
2022-09-04T19:42:26.911Z,2.42
2022-09-04T19:45:59.467Z,2.88
2022-09-04T19:46:19.270Z,2.38
2022-09-04T19:47:51.400Z,2.75
2022-09-04T19:53:33.441Z,2.95
2022-09-04T19:53:58.405Z,2.75
2022-09-04T19:57:31.108Z,2.65
2022-09-04T20:00:42.847Z,2.30
2022-09-04T20:03:30.211Z,2.78
2022-09-04T20:06:23.038Z,2.72
2022-09-04T20:09:17.106Z,3.00
2022-09-04T20:12:13.757Z,2.70
2022-09-04T20:15:11.629Z,2.50
2022-09-04T20:18:12.345Z,2.80
2022-09-04T20:21:08.003Z,2.67
2022-09-04T20:24:02.994Z,2.65
2022-09-04T20:26:56.134Z,2.85
2022-09-04T20:29:52.396Z,3.22
2022-09-04T20:32:55.997Z,2.95
2022-09-04T20:35:49.546Z,2.78
2022-09-04T20:38:46.398Z,2.90
2022-09-04T20:41:46.007Z,2.42
2022-09-04T20:44:57.873Z,2.25
2022-09-04T20:52:50.157Z,2.50
2022-09-04T20:52:54.578Z,2.70
2022-09-04T20:54:44.290Z,3.08
2022-09-04T21:02:26.940Z,2.80
2022-09-04T21:03:22.692Z,2.80
2022-09-04T21:04:25.013Z,3.00
2022-09-04T21:07:34.630Z,2.72
2022-09-04T21:10:29.237Z,3.00
2022-09-04T21:13:23.775Z,2.50
2022-09-04T21:16:24.559Z,3.17
2022-09-04T21:19:49.060Z,3.17
2022-09-04T21:22:50.807Z,3.00
2022-09-04T21:25:51.361Z,2.70
2022-09-04T21:29:11.340Z,2.67
2022-09-04T21:32:19.564Z,2.75
2022-09-04T21:35:14.101Z,3.00
2022-09-04T21:38:12.622Z,2.83
2022-09-04T21:41:22.216Z,2.67
2022-09-04T21:44:34.287Z,2.88
2022-09-04T21:47:33.612Z,3.20
2022-09-04T21:50:50.385Z,2.50
2022-09-04T21:54:08.639Z,2.85
2022-09-04T22:02:30.673Z,2.85
2022-09-04T22:02:42.825Z,2.90
2022-09-04T22:04:49.873Z,2.95
2022-09-04T22:12:58.720Z,2.85
2022-09-04T22:13:32.999Z,3.05
2022-09-04T22:14:26.032Z,3.33
2022-09-04T22:17:30.544Z,2.88
2022-09-04T22:20:24.454Z,3.20
2022-09-04T22:23:50.895Z,2.72
2022-09-04T22:26:53.550Z,2.70
2022-09-04T22:29:50.950Z,3.03
2022-09-04T22:33:13.226Z,2.80
2022-09-04T22:36:28.091Z,3.00
2022-09-04T22:39:37.872Z,3.15
2022-09-04T22:42:47.498Z,2.88
2022-09-04T22:46:04.045Z,3.03
2022-09-04T22:49:24.827Z,2.65
2022-09-04T22:52:35.733Z,3.03
2022-09-04T22:55:40.609Z,2.97
2022-09-04T22:59:27.110Z,3.00
2022-09-04T23:02:55.430Z,3.05
2022-09-04T23:06:54.413Z,2.80
2022-09-04T23:13:46.602Z,3.03
2022-09-04T23:13:52.840Z,2.90
2022-09-04T23:16:40.311Z,2.95
2022-09-04T23:26:35.288Z,2.83
2022-09-04T23:26:44.478Z,3.58
2022-09-04T23:27:28.737Z,3.00
2022-09-04T23:30:25.211Z,3.40
2022-09-04T23:33:49.376Z,3.35
2022-09-04T23:36:49.827Z,3.03
2022-09-04T23:40:06.193Z,3.20
2022-09-04T23:43:27.236Z,3.60
2022-09-04T23:46:31.067Z,2.72
2022-09-04T23:49:41.488Z,3.20
2022-09-04T23:52:49.135Z,2.83
2022-09-04T23:56:04.358Z,3.15
2022-09-04T23:59:22.745Z,3.10
